sensor_id;sensor_type;location;lat;lon;timestamp;P1;durP1;ratioP1;P2;durP2;ratioP2
54143;SDS011;40050;47.324;18.792;2023-03-01T00:01:36;28.15;;;14.96;;
54143;SDS011;40050;47.324;18.792;2023-03-01T00:03:37;26.68;;;14.66;;
54143;SDS011;40050;47.324;18.792;2023-03-01T00:05:44;26.40;;;14.86;;
54143;SDS011;40050;47.324;18.792;2023-03-01T00:07:39;26.88;;;14.56;;
54143;SDS011;40050;47.324;18.792;2023-03-01T00:09:40;26.57;;;14.96;;
54143;SDS011;40050;47.324;18.792;2023-03-01T00:11:43;26.47;;;15.06;;
54143;SDS011;40050;47.324;18.792;2023-03-01T00:13:45;27.06;;;14.96;;
54143;SDS011;40050;47.324;18.792;2023-03-01T00:15:45;29.50;;;15.46;;
54143;SDS011;40050;47.324;18.792;2023-03-01T00:17:46;28.43;;;15.16;;
54143;SDS011;40050;47.324;18.792;2023-03-01T00:19:48;25.79;;;14.46;;
54143;SDS011;40050;47.324;18.792;2023-03-01T00:21:51;29.40;;;15.56;;
54143;SDS011;40050;47.324;18.792;2023-03-01T00:23:52;28.24;;;15.06;;
54143;SDS011;40050;47.324;18.792;2023-03-01T00:25:53;29.52;;;15.36;;
54143;SDS011;40050;47.324;18.792;2023-03-01T00:27:54;29.22;;;14.96;;
54143;SDS011;40050;47.324;18.792;2023-03-01T00:29:55;27.84;;;15.16;;
54143;SDS011;40050;47.324;18.792;2023-03-01T00:32:00;27.06;;;14.96;;
54143;SDS011;40050;47.324;18.792;2023-03-01T00:34:02;27.84;;;15.06;;
54143;SDS011;40050;47.324;18.792;2023-03-01T00:36:05;27.85;;;14.26;;
54143;SDS011;40050;47.324;18.792;2023-03-01T00:38:06;27.97;;;14.76;;
54143;SDS011;40050;47.324;18.792;2023-03-01T00:40:07;27.40;;;15.06;;
54143;SDS011;40050;47.324;18.792;2023-03-01T00:42:07;27.67;;;14.76;;
54143;SDS011;40050;47.324;18.792;2023-03-01T00:44:09;28.35;;;14.96;;
54143;SDS011;40050;47.324;18.792;2023-03-01T00:46:10;27.76;;;14.86;;
54143;SDS011;40050;47.324;18.792;2023-03-01T00:48:10;28.16;;;14.26;;
54143;SDS011;40050;47.324;18.792;2023-03-01T00:50:11;28.36;;;14.26;;
54143;SDS011;40050;47.324;18.792;2023-03-01T00:52:12;24.22;;;14.16;;
54143;SDS011;40050;47.324;18.792;2023-03-01T00:54:13;28.45;;;15.05;;
54143;SDS011;40050;47.324;18.792;2023-03-01T00:56:14;27.53;;;15.35;;
54143;SDS011;40050;47.324;18.792;2023-03-01T00:58:15;31.00;;;15.35;;
54143;SDS011;40050;47.324;18.792;2023-03-01T01:00:16;26.70;;;15.44;;
54143;SDS011;40050;47.324;18.792;2023-03-01T01:02:17;27.60;;;15.05;;
54143;SDS011;40050;47.324;18.792;2023-03-01T01:04:19;26.76;;;14.65;;
54143;SDS011;40050;47.324;18.792;2023-03-01T01:06:21;30.95;;;14.65;;
54143;SDS011;40050;47.324;18.792;2023-03-01T01:08:21;27.71;;;14.85;;
54143;SDS011;40050;47.324;18.792;2023-03-01T01:10:22;27.91;;;15.05;;
54143;SDS011;40050;47.324;18.792;2023-03-01T01:12:23;26.84;;;15.55;;
54143;SDS011;40050;47.324;18.792;2023-03-01T01:14:23;26.75;;;15.65;;
54143;SDS011;40050;47.324;18.792;2023-03-01T01:16:25;29.29;;;15.35;;
54143;SDS011;40050;47.324;18.792;2023-03-01T01:18:25;28.61;;;15.15;;
54143;SDS011;40050;47.324;18.792;2023-03-01T01:20:26;28.42;;;14.65;;
54143;SDS011;40050;47.324;18.792;2023-03-01T01:22:27;27.46;;;14.45;;
54143;SDS011;40050;47.324;18.792;2023-03-01T01:24:28;26.79;;;14.85;;
54143;SDS011;40050;47.324;18.792;2023-03-01T01:26:34;29.05;;;14.85;;
54143;SDS011;40050;47.324;18.792;2023-03-01T01:28:35;28.96;;;14.56;;
54143;SDS011;40050;47.324;18.792;2023-03-01T01:30:36;27.68;;;14.56;;
54143;SDS011;40050;47.324;18.792;2023-03-01T01:32:37;27.78;;;14.86;;
54143;SDS011;40050;47.324;18.792;2023-03-01T01:34:39;24.65;;;14.16;;
54143;SDS011;40050;47.324;18.792;2023-03-01T01:36:40;30.19;;;15.65;;
54143;SDS011;40050;47.324;18.792;2023-03-01T01:38:41;29.12;;;15.45;;
54143;SDS011;40050;47.324;18.792;2023-03-01T01:40:45;29.58;;;14.95;;
54143;SDS011;40050;47.324;18.792;2023-03-01T01:42:46;26.28;;;14.95;;
54143;SDS011;40050;47.324;18.792;2023-03-01T01:45:15;29.38;;;15.95;;
54143;SDS011;40050;47.324;18.792;2023-03-01T01:47:02;29.86;;;15.25;;
54143;SDS011;40050;47.324;18.792;2023-03-01T01:49:19;28.49;;;15.25;;
54143;SDS011;40050;47.324;18.792;2023-03-01T01:51:17;29.18;;;15.25;;
54143;SDS011;40050;47.324;18.792;2023-03-01T01:53:16;29.07;;;15.84;;
54143;SDS011;40050;47.324;18.792;2023-03-01T01:55:27;28.96;;;15.35;;
54143;SDS011;40050;47.324;18.792;2023-03-01T01:57:38;30.03;;;15.35;;
54143;SDS011;40050;47.324;18.792;2023-03-01T01:59:32;26.80;;;15.24;;
54143;SDS011;40050;47.324;18.792;2023-03-01T02:01:34;25.35;;;14.65;;
54143;SDS011;40050;47.324;18.792;2023-03-01T02:03:37;27.20;;;15.14;;
54143;SDS011;40050;47.324;18.792;2023-03-01T02:06:01;30.32;;;15.45;;
54143;SDS011;40050;47.324;18.792;2023-03-01T02:07:57;26.72;;;15.05;;
54143;SDS011;40050;47.324;18.792;2023-03-01T02:09:59;28.19;;;14.95;;
54143;SDS011;40050;47.324;18.792;2023-03-01T02:12:01;25.37;;;14.75;;
54143;SDS011;40050;47.324;18.792;2023-03-01T02:14:05;27.48;;;14.45;;
54143;SDS011;40050;47.324;18.792;2023-03-01T02:16:08;28.03;;;15.54;;
54143;SDS011;40050;47.324;18.792;2023-03-01T02:18:08;28.51;;;14.14;;
54143;SDS011;40050;47.324;18.792;2023-03-01T02:20:23;22.62;;;12.75;;
54143;SDS011;40050;47.324;18.792;2023-03-01T02:22:30;23.88;;;12.85;;
54143;SDS011;40050;47.324;18.792;2023-03-01T02:26:45;22.49;;;11.65;;
54143;SDS011;40050;47.324;18.792;2023-03-01T02:28:58;20.95;;;11.26;;
54143;SDS011;40050;47.324;18.792;2023-03-01T02:31:00;21.41;;;11.65;;
54143;SDS011;40050;47.324;18.792;2023-03-01T02:33:02;19.06;;;10.85;;
54143;SDS011;40050;47.324;18.792;2023-03-01T02:35:03;19.07;;;11.25;;
54143;SDS011;40050;47.324;18.792;2023-03-01T02:37:10;19.55;;;10.36;;
54143;SDS011;40050;47.324;18.792;2023-03-01T02:39:12;21.11;;;11.05;;
54143;SDS011;40050;47.324;18.792;2023-03-01T02:41:13;19.75;;;10.46;;
54143;SDS011;40050;47.324;18.792;2023-03-01T02:43:29;20.04;;;10.75;;
54143;SDS011;40050;47.324;18.792;2023-03-01T02:45:28;21.39;;;10.65;;
54143;SDS011;40050;47.324;18.792;2023-03-01T02:47:32;20.32;;;10.75;;
54143;SDS011;40050;47.324;18.792;2023-03-01T02:49:35;19.14;;;10.55;;
54143;SDS011;40050;47.324;18.792;2023-03-01T02:51:52;20.19;;;10.65;;
54143;SDS011;40050;47.324;18.792;2023-03-01T02:54:30;18.36;;;10.75;;
54143;SDS011;40050;47.324;18.792;2023-03-01T02:56:11;19.72;;;10.65;;
54143;SDS011;40050;47.324;18.792;2023-03-01T02:58:15;21.74;;;10.85;;
54143;SDS011;40050;47.324;18.792;2023-03-01T03:00:20;21.72;;;10.55;;
54143;SDS011;40050;47.324;18.792;2023-03-01T03:02:20;20.17;;;10.55;;
54143;SDS011;40050;47.324;18.792;2023-03-01T03:04:18;19.09;;;9.65;;
54143;SDS011;40050;47.324;18.792;2023-03-01T03:06:19;18.69;;;10.84;;
54143;SDS011;40050;47.324;18.792;2023-03-01T03:08:20;19.66;;;10.44;;
54143;SDS011;40050;47.324;18.792;2023-03-01T03:10:23;18.61;;;10.45;;
54143;SDS011;40050;47.324;18.792;2023-03-01T03:12:22;18.61;;;10.75;;
54143;SDS011;40050;47.324;18.792;2023-03-01T03:14:23;19.47;;;10.94;;
54143;SDS011;40050;47.324;18.792;2023-03-01T03:16:25;22.85;;;11.54;;
54143;SDS011;40050;47.324;18.792;2023-03-01T03:18:26;21.49;;;12.04;;
54143;SDS011;40050;47.324;18.792;2023-03-01T03:20:27;19.08;;;10.64;;
54143;SDS011;40050;47.324;18.792;2023-03-01T03:22:28;21.69;;;10.84;;
54143;SDS011;40050;47.324;18.792;2023-03-01T03:24:29;22.65;;;11.54;;
54143;SDS011;40050;47.324;18.792;2023-03-01T03:26:30;19.84;;;11.14;;
54143;SDS011;40050;47.324;18.792;2023-03-01T03:28:31;21.57;;;10.84;;
54143;SDS011;40050;47.324;18.792;2023-03-01T03:30:32;18.11;;;10.74;;
54143;SDS011;40050;47.324;18.792;2023-03-01T03:32:33;20.12;;;10.74;;
54143;SDS011;40050;47.324;18.792;2023-03-01T03:34:34;20.89;;;10.64;;
54143;SDS011;40050;47.324;18.792;2023-03-01T03:36:35;19.34;;;11.04;;
54143;SDS011;40050;47.324;18.792;2023-03-01T03:38:38;20.10;;;11.14;;
54143;SDS011;40050;47.324;18.792;2023-03-01T03:40:39;19.33;;;10.84;;
54143;SDS011;40050;47.324;18.792;2023-03-01T03:42:40;18.07;;;10.14;;
54143;SDS011;40050;47.324;18.792;2023-03-01T03:44:41;18.93;;;10.84;;
54143;SDS011;40050;47.324;18.792;2023-03-01T03:46:42;20.09;;;10.64;;
54143;SDS011;40050;47.324;18.792;2023-03-01T03:48:44;20.17;;;10.24;;
54143;SDS011;40050;47.324;18.792;2023-03-01T03:50:49;20.26;;;10.64;;
54143;SDS011;40050;47.324;18.792;2023-03-01T03:52:46;19.78;;;10.73;;
54143;SDS011;40050;47.324;18.792;2023-03-01T03:54:47;18.64;;;10.24;;
54143;SDS011;40050;47.324;18.792;2023-03-01T03:56:48;18.54;;;10.24;;
54143;SDS011;40050;47.324;18.792;2023-03-01T03:58:50;18.15;;;9.94;;
54143;SDS011;40050;47.324;18.792;2023-03-01T04:00:53;20.93;;;10.24;;
54143;SDS011;40050;47.324;18.792;2023-03-01T04:02:53;20.05;;;10.63;;
54143;SDS011;40050;47.324;18.792;2023-03-01T04:04:54;18.99;;;10.33;;
54143;SDS011;40050;47.324;18.792;2023-03-01T04:06:55;19.47;;;10.33;;
54143;SDS011;40050;47.324;18.792;2023-03-01T04:08:56;18.51;;;10.83;;
54143;SDS011;40050;47.324;18.792;2023-03-01T04:10:59;20.52;;;10.24;;
54143;SDS011;40050;47.324;18.792;2023-03-01T04:12:59;17.36;;;10.33;;
54143;SDS011;40050;47.324;18.792;2023-03-01T04:15:00;20.14;;;10.33;;
54143;SDS011;40050;47.324;18.792;2023-03-01T04:17:01;22.16;;;10.63;;
54143;SDS011;40050;47.324;18.792;2023-03-01T04:19:02;21.00;;;11.43;;
54143;SDS011;40050;47.324;18.792;2023-03-01T04:21:04;20.82;;;10.73;;
54143;SDS011;40050;47.324;18.792;2023-03-01T04:23:09;18.80;;;10.14;;
54143;SDS011;40050;47.324;18.792;2023-03-01T04:25:06;21.38;;;11.13;;
54143;SDS011;40050;47.324;18.792;2023-03-01T04:27:07;18.70;;;10.33;;
54143;SDS011;40050;47.324;18.792;2023-03-01T04:29:12;19.47;;;10.14;;
54143;SDS011;40050;47.324;18.792;2023-03-01T04:31:14;20.14;;;10.93;;
54143;SDS011;40050;47.324;18.792;2023-03-01T04:33:14;20.53;;;11.33;;
54143;SDS011;40050;47.324;18.792;2023-03-01T04:35:15;21.49;;;11.73;;
54143;SDS011;40050;47.324;18.792;2023-03-01T04:37:16;19.67;;;10.73;;
54143;SDS011;40050;47.324;18.792;2023-03-01T04:39:17;22.16;;;12.02;;
54143;SDS011;40050;47.324;18.792;2023-03-01T04:41:18;20.13;;;11.33;;
54143;SDS011;40050;47.324;18.792;2023-03-01T04:43:19;23.67;;;11.23;;
54143;SDS011;40050;47.324;18.792;2023-03-01T04:45:20;21.36;;;11.23;;
54143;SDS011;40050;47.324;18.792;2023-03-01T04:47:20;20.68;;;11.62;;
54143;SDS011;40050;47.324;18.792;2023-03-01T04:49:21;19.90;;;11.62;;
54143;SDS011;40050;47.324;18.792;2023-03-01T04:51:22;23.15;;;11.92;;
54143;SDS011;40050;47.324;18.792;2023-03-01T04:53:23;22.19;;;11.82;;
54143;SDS011;40050;47.324;18.792;2023-03-01T04:55:25;22.11;;;11.72;;
54143;SDS011;40050;47.324;18.792;2023-03-01T04:57:25;21.56;;;11.82;;
54143;SDS011;40050;47.324;18.792;2023-03-01T04:59:26;22.32;;;11.82;;
54143;SDS011;40050;47.324;18.792;2023-03-01T05:01:27;21.08;;;11.72;;
54143;SDS011;40050;47.324;18.792;2023-03-01T05:03:30;20.70;;;11.43;;
54143;SDS011;40050;47.324;18.792;2023-03-01T05:05:32;21.85;;;11.23;;
54143;SDS011;40050;47.324;18.792;2023-03-01T05:07:35;19.84;;;11.33;;
54143;SDS011;40050;47.324;18.792;2023-03-01T05:09:36;18.11;;;10.83;;
54143;SDS011;40050;47.324;18.792;2023-03-01T05:11:37;22.04;;;11.43;;
54143;SDS011;40050;47.324;18.792;2023-03-01T05:13:39;23.48;;;11.82;;
54143;SDS011;40050;47.324;18.792;2023-03-01T05:15:40;18.89;;;10.93;;
54143;SDS011;40050;47.324;18.792;2023-03-01T05:17:41;18.89;;;10.43;;
54143;SDS011;40050;47.324;18.792;2023-03-01T05:19:41;20.91;;;11.03;;
54143;SDS011;40050;47.324;18.792;2023-03-01T05:21:44;19.18;;;10.73;;
54143;SDS011;40050;47.324;18.792;2023-03-01T05:23:45;17.37;;;9.84;;
54143;SDS011;40050;47.324;18.792;2023-03-01T05:25:46;17.00;;;10.14;;
54143;SDS011;40050;47.324;18.792;2023-03-01T05:27:47;21.91;;;10.64;;
54143;SDS011;40050;47.324;18.792;2023-03-01T05:29:48;19.22;;;10.04;;
54143;SDS011;40050;47.324;18.792;2023-03-01T05:31:48;20.48;;;10.54;;
54143;SDS011;40050;47.324;18.792;2023-03-01T05:33:52;20.02;;;10.64;;
54143;SDS011;40050;47.324;18.792;2023-03-01T05:35:50;21.08;;;10.94;;
54143;SDS011;40050;47.324;18.792;2023-03-01T05:37:51;21.38;;;11.14;;
54143;SDS011;40050;47.324;18.792;2023-03-01T05:39:53;22.98;;;10.75;;
54143;SDS011;40050;47.324;18.792;2023-03-01T05:41:55;19.88;;;11.14;;
54143;SDS011;40050;47.324;18.792;2023-03-01T05:43:55;19.62;;;10.55;;
54143;SDS011;40050;47.324;18.792;2023-03-01T05:45:57;24.65;;;12.04;;
54143;SDS011;40050;47.324;18.792;2023-03-01T05:47:58;19.35;;;10.55;;
54143;SDS011;40050;47.324;18.792;2023-03-01T05:49:58;19.86;;;11.05;;
54143;SDS011;40050;47.324;18.792;2023-03-01T05:51:59;20.06;;;11.15;;
54143;SDS011;40050;47.324;18.792;2023-03-01T05:54:00;19.46;;;10.75;;
54143;SDS011;40050;47.324;18.792;2023-03-01T05:56:04;18.57;;;10.75;;
54143;SDS011;40050;47.324;18.792;2023-03-01T05:58:03;22.06;;;11.15;;
54143;SDS011;40050;47.324;18.792;2023-03-01T06:00:03;20.13;;;10.65;;
54143;SDS011;40050;47.324;18.792;2023-03-01T06:02:05;21.02;;;10.76;;
54143;SDS011;40050;47.324;18.792;2023-03-01T06:04:07;22.09;;;10.86;;
54143;SDS011;40050;47.324;18.792;2023-03-01T06:06:08;18.79;;;10.46;;
54143;SDS011;40050;47.324;18.792;2023-03-01T06:08:10;20.58;;;11.45;;
54143;SDS011;40050;47.324;18.792;2023-03-01T06:10:11;20.53;;;10.95;;
54143;SDS011;40050;47.324;18.792;2023-03-01T06:12:11;19.60;;;10.96;;
54143;SDS011;40050;47.324;18.792;2023-03-01T06:14:13;22.78;;;11.95;;
54143;SDS011;40050;47.324;18.792;2023-03-01T06:16:14;20.82;;;11.45;;
54143;SDS011;40050;47.324;18.792;2023-03-01T06:18:15;22.17;;;10.95;;
54143;SDS011;40050;47.324;18.792;2023-03-01T06:20:21;21.87;;;10.65;;
54143;SDS011;40050;47.324;18.792;2023-03-01T06:22:18;20.22;;;10.25;;
54143;SDS011;40050;47.324;18.792;2023-03-01T06:24:19;20.71;;;11.35;;
54143;SDS011;40050;47.324;18.792;2023-03-01T06:26:20;21.19;;;10.95;;
54143;SDS011;40050;47.324;18.792;2023-03-01T06:28:21;18.72;;;10.65;;
54143;SDS011;40050;47.324;18.792;2023-03-01T06:30:23;21.30;;;10.74;;
54143;SDS011;40050;47.324;18.792;2023-03-01T06:32:23;21.07;;;11.44;;
54143;SDS011;40050;47.324;18.792;2023-03-01T06:34:25;18.78;;;11.04;;
54143;SDS011;40050;47.324;18.792;2023-03-01T06:36:26;21.02;;;12.14;;
54143;SDS011;40050;47.324;18.792;2023-03-01T06:38:27;21.03;;;11.14;;
54143;SDS011;40050;47.324;18.792;2023-03-01T06:40:28;22.10;;;10.85;;
54143;SDS011;40050;47.324;18.792;2023-03-01T06:42:29;20.68;;;11.25;;
54143;SDS011;40050;47.324;18.792;2023-03-01T06:44:30;20.21;;;10.75;;
54143;SDS011;40050;47.324;18.792;2023-03-01T06:46:31;19.26;;;10.65;;
54143;SDS011;40050;47.324;18.792;2023-03-01T06:48:33;21.29;;;10.65;;
54143;SDS011;40050;47.324;18.792;2023-03-01T06:50:34;18.98;;;11.25;;
54143;SDS011;40050;47.324;18.792;2023-03-01T06:52:35;19.65;;;10.26;;
54143;SDS011;40050;47.324;18.792;2023-03-01T06:54:36;19.26;;;10.75;;
54143;SDS011;40050;47.324;18.792;2023-03-01T06:56:37;24.12;;;10.85;;
54143;SDS011;40050;47.324;18.792;2023-03-01T06:58:38;17.52;;;10.46;;
54143;SDS011;40050;47.324;18.792;2023-03-01T07:00:39;19.09;;;9.96;;
54143;SDS011;40050;47.324;18.792;2023-03-01T07:02:43;18.71;;;10.36;;
54143;SDS011;40050;47.324;18.792;2023-03-01T07:04:44;16.86;;;9.76;;
54143;SDS011;40050;47.324;18.792;2023-03-01T07:06:45;19.77;;;10.96;;
54143;SDS011;40050;47.324;18.792;2023-03-01T07:08:46;19.01;;;11.16;;
54143;SDS011;40050;47.324;18.792;2023-03-01T07:10:47;22.59;;;11.16;;
54143;SDS011;40050;47.324;18.792;2023-03-01T07:12:48;20.77;;;10.66;;
54143;SDS011;40050;47.324;18.792;2023-03-01T07:14:49;21.36;;;10.56;;
54143;SDS011;40050;47.324;18.792;2023-03-01T07:16:50;20.38;;;11.06;;
54143;SDS011;40050;47.324;18.792;2023-03-01T07:18:51;19.92;;;10.96;;
54143;SDS011;40050;47.324;18.792;2023-03-01T07:20:52;21.31;;;10.57;;
54143;SDS011;40050;47.324;18.792;2023-03-01T07:22:53;17.12;;;9.97;;
54143;SDS011;40050;47.324;18.792;2023-03-01T07:24:54;18.21;;;10.87;;
54143;SDS011;40050;47.324;18.792;2023-03-01T07:26:55;19.47;;;10.27;;
54143;SDS011;40050;47.324;18.792;2023-03-01T07:28:58;22.48;;;10.27;;
54143;SDS011;40050;47.324;18.792;2023-03-01T07:31:02;18.51;;;9.97;;
54143;SDS011;40050;47.324;18.792;2023-03-01T07:32:58;17.54;;;10.27;;
54143;SDS011;40050;47.324;18.792;2023-03-01T07:34:59;18.43;;;10.27;;
54143;SDS011;40050;47.324;18.792;2023-03-01T07:36:59;21.74;;;10.87;;
54143;SDS011;40050;47.324;18.792;2023-03-01T07:39:00;19.69;;;10.47;;
54143;SDS011;40050;47.324;18.792;2023-03-01T07:41:02;20.01;;;9.87;;
54143;SDS011;40050;47.324;18.792;2023-03-01T07:43:02;18.08;;;9.87;;
54143;SDS011;40050;47.324;18.792;2023-03-01T07:45:04;18.65;;;9.87;;
54143;SDS011;40050;47.324;18.792;2023-03-01T07:47:04;21.81;;;10.47;;
54143;SDS011;40050;47.324;18.792;2023-03-01T07:49:05;19.16;;;10.67;;
54143;SDS011;40050;47.324;18.792;2023-03-01T07:51:06;18.09;;;10.17;;
54143;SDS011;40050;47.324;18.792;2023-03-01T07:53:07;23.15;;;10.17;;
54143;SDS011;40050;47.324;18.792;2023-03-01T07:55:08;18.35;;;10.17;;
54143;SDS011;40050;47.324;18.792;2023-03-01T07:57:09;19.91;;;10.27;;
54143;SDS011;40050;47.324;18.792;2023-03-01T07:59:11;20.98;;;10.57;;
54143;SDS011;40050;47.324;18.792;2023-03-01T08:01:13;19.72;;;10.17;;
54143;SDS011;40050;47.324;18.792;2023-03-01T08:03:13;19.04;;;10.07;;
54143;SDS011;40050;47.324;18.792;2023-03-01T08:05:14;18.76;;;10.27;;
54143;SDS011;40050;47.324;18.792;2023-03-01T08:07:15;20.53;;;10.47;;
54143;SDS011;40050;47.324;18.792;2023-03-01T08:09:16;18.87;;;10.47;;
54143;SDS011;40050;47.324;18.792;2023-03-01T08:11:17;19.57;;;10.28;;
54143;SDS011;40050;47.324;18.792;2023-03-01T08:13:18;18.22;;;10.28;;
54143;SDS011;40050;47.324;18.792;2023-03-01T08:15:19;18.59;;;10.08;;
54143;SDS011;40050;47.324;18.792;2023-03-01T08:17:20;19.29;;;10.68;;
54143;SDS011;40050;47.324;18.792;2023-03-01T08:19:21;18.12;;;10.08;;
54143;SDS011;40050;47.324;18.792;2023-03-01T08:21:22;18.13;;;10.18;;
54143;SDS011;40050;47.324;18.792;2023-03-01T08:23:23;22.26;;;11.08;;
54143;SDS011;40050;47.324;18.792;2023-03-01T08:25:24;24.12;;;10.88;;
54143;SDS011;40050;47.324;18.792;2023-03-01T08:27:25;18.83;;;10.08;;
54143;SDS011;40050;47.324;18.792;2023-03-01T08:29:26;19.43;;;10.28;;
54143;SDS011;40050;47.324;18.792;2023-03-01T08:31:29;17.08;;;10.08;;
54143;SDS011;40050;47.324;18.792;2023-03-01T08:33:29;17.86;;;10.08;;
54143;SDS011;40050;47.324;18.792;2023-03-01T08:35:30;20.01;;;10.88;;
54143;SDS011;40050;47.324;18.792;2023-03-01T08:37:31;18.27;;;9.68;;
54143;SDS011;40050;47.324;18.792;2023-03-01T08:39:32;17.68;;;9.98;;
54143;SDS011;40050;47.324;18.792;2023-03-01T08:41:33;18.56;;;10.18;;
54143;SDS011;40050;47.324;18.792;2023-03-01T08:43:34;22.72;;;9.58;;
54143;SDS011;40050;47.324;18.792;2023-03-01T08:45:35;17.88;;;9.28;;
54143;SDS011;40050;47.324;18.792;2023-03-01T08:47:36;17.01;;;9.58;;
54143;SDS011;40050;47.324;18.792;2023-03-01T08:49:38;16.14;;;8.89;;
54143;SDS011;40050;47.324;18.792;2023-03-01T08:51:47;16.83;;;9.79;;
54143;SDS011;40050;47.324;18.792;2023-03-01T08:53:50;18.50;;;9.19;;
54143;SDS011;40050;47.324;18.792;2023-03-01T08:55:48;16.54;;;8.99;;
54143;SDS011;40050;47.324;18.792;2023-03-01T08:57:49;18.02;;;9.79;;
54143;SDS011;40050;47.324;18.792;2023-03-01T08:59:50;18.41;;;10.29;;
54143;SDS011;40050;47.324;18.792;2023-03-01T09:01:51;17.93;;;10.29;;
54143;SDS011;40050;47.324;18.792;2023-03-01T09:03:52;17.94;;;10.19;;
54143;SDS011;40050;47.324;18.792;2023-03-01T09:05:53;22.17;;;10.29;;
54143;SDS011;40050;47.324;18.792;2023-03-01T09:07:54;17.93;;;10.09;;
54143;SDS011;40050;47.324;18.792;2023-03-01T09:09:55;18.55;;;10.29;;
54143;SDS011;40050;47.324;18.792;2023-03-01T09:11:56;17.76;;;10.09;;
54143;SDS011;40050;47.324;18.792;2023-03-01T09:13:58;19.74;;;9.69;;
54143;SDS011;40050;47.324;18.792;2023-03-01T09:16:00;17.16;;;9.59;;
54143;SDS011;40050;47.324;18.792;2023-03-01T09:18:00;18.75;;;10.09;;
54143;SDS011;40050;47.324;18.792;2023-03-01T09:20:01;18.56;;;9.89;;
54143;SDS011;40050;47.324;18.792;2023-03-01T09:22:03;21.33;;;10.29;;
54143;SDS011;40050;47.324;18.792;2023-03-01T09:24:03;18.77;;;10.19;;
54143;SDS011;40050;47.324;18.792;2023-03-01T09:26:08;19.95;;;10.49;;
54143;SDS011;40050;47.324;18.792;2023-03-01T09:28:06;18.06;;;10.39;;
54143;SDS011;40050;47.324;18.792;2023-03-01T09:30:07;18.07;;;10.49;;
54143;SDS011;40050;47.324;18.792;2023-03-01T09:32:08;18.07;;;10.39;;
54143;SDS011;40050;47.324;18.792;2023-03-01T09:34:10;19.54;;;10.19;;
54143;SDS011;40050;47.324;18.792;2023-03-01T09:36:12;17.08;;;9.89;;
54143;SDS011;40050;47.324;18.792;2023-03-01T09:38:13;20.07;;;10.59;;
54143;SDS011;40050;47.324;18.792;2023-03-01T09:40:20;18.09;;;10.49;;
54143;SDS011;40050;47.324;18.792;2023-03-01T09:42:20;22.74;;;10.69;;
54143;SDS011;40050;47.324;18.792;2023-03-01T09:44:34;18.29;;;9.99;;
54143;SDS011;40050;47.324;18.792;2023-03-01T09:46:25;19.18;;;10.99;;
54143;SDS011;40050;47.324;18.792;2023-03-01T09:48:27;17.72;;;10.39;;
54143;SDS011;40050;47.324;18.792;2023-03-01T09:50:41;16.43;;;9.99;;
54143;SDS011;40050;47.324;18.792;2023-03-01T09:53:02;18.02;;;9.99;;
54143;SDS011;40050;47.324;18.792;2023-03-01T09:54:54;19.12;;;11.19;;
54143;SDS011;40050;47.324;18.792;2023-03-01T09:57:17;17.22;;;10.69;;
54143;SDS011;40050;47.324;18.792;2023-03-01T09:59:23;19.70;;;10.09;;
54143;SDS011;40050;47.324;18.792;2023-03-01T10:01:37;23.35;;;10.79;;
54143;SDS011;40050;47.324;18.792;2023-03-01T10:03:36;20.09;;;10.99;;
54143;SDS011;40050;47.324;18.792;2023-03-01T10:10:00;18.92;;;10.89;;
54143;SDS011;40050;47.324;18.792;2023-03-01T10:12:06;18.03;;;10.79;;
54143;SDS011;40050;47.324;18.792;2023-03-01T10:14:30;19.02;;;10.19;;
54143;SDS011;40050;47.324;18.792;2023-03-01T10:16:50;19.24;;;10.79;;
54143;SDS011;40050;47.324;18.792;2023-03-01T10:18:51;20.13;;;10.69;;
54143;SDS011;40050;47.324;18.792;2023-03-01T10:21:01;18.44;;;10.19;;
54143;SDS011;40050;47.324;18.792;2023-03-01T10:23:02;18.54;;;10.39;;
54143;SDS011;40050;47.324;18.792;2023-03-01T10:25:05;17.94;;;10.59;;
54143;SDS011;40050;47.324;18.792;2023-03-01T10:27:19;19.34;;;11.49;;
54143;SDS011;40050;47.324;18.792;2023-03-01T10:29:25;19.94;;;11.09;;
54143;SDS011;40050;47.324;18.792;2023-03-01T10:31:23;19.05;;;10.79;;
54143;SDS011;40050;47.324;18.792;2023-03-01T10:33:26;17.67;;;10.20;;
54143;SDS011;40050;47.324;18.792;2023-03-01T10:35:26;17.47;;;10.69;;
54143;SDS011;40050;47.324;18.792;2023-03-01T10:37:28;20.55;;;10.60;;
54143;SDS011;40050;47.324;18.792;2023-03-01T10:39:29;24.72;;;11.69;;
54143;SDS011;40050;47.324;18.792;2023-03-01T10:41:37;17.88;;;10.40;;
54143;SDS011;40050;47.324;18.792;2023-03-01T10:43:46;17.88;;;10.80;;
54143;SDS011;40050;47.324;18.792;2023-03-01T10:45:58;18.18;;;10.90;;
54143;SDS011;40050;47.324;18.792;2023-03-01T10:48:17;20.87;;;11.50;;
54143;SDS011;40050;47.324;18.792;2023-03-01T10:50:01;21.47;;;11.60;;
54143;SDS011;40050;47.324;18.792;2023-03-01T10:52:11;19.88;;;10.60;;
54143;SDS011;40050;47.324;18.792;2023-03-01T10:54:29;17.69;;;10.40;;
54143;SDS011;40050;47.324;18.792;2023-03-01T10:56:27;17.59;;;10.60;;
54143;SDS011;40050;47.324;18.792;2023-03-01T10:58:59;17.89;;;10.40;;
54143;SDS011;40050;47.324;18.792;2023-03-01T11:00:53;19.68;;;10.10;;
54143;SDS011;40050;47.324;18.792;2023-03-01T11:03:03;19.78;;;10.70;;
54143;SDS011;40050;47.324;18.792;2023-03-01T11:07:04;17.59;;;10.70;;
54143;SDS011;40050;47.324;18.792;2023-03-01T11:09:13;21.37;;;11.10;;
54143;SDS011;40050;47.324;18.792;2023-03-01T11:13:16;18.50;;;10.60;;
54143;SDS011;40050;47.324;18.792;2023-03-01T11:15:24;19.78;;;10.90;;
54143;SDS011;40050;47.324;18.792;2023-03-01T11:17:31;21.17;;;10.70;;
54143;SDS011;40050;47.324;18.792;2023-03-01T11:19:42;21.56;;;11.10;;
54143;SDS011;40050;47.324;18.792;2023-03-01T11:21:47;18.09;;;10.60;;
54143;SDS011;40050;47.324;18.792;2023-03-01T11:23:46;18.59;;;10.20;;
54143;SDS011;40050;47.324;18.792;2023-03-01T11:25:54;19.18;;;10.80;;
54143;SDS011;40050;47.324;18.792;2023-03-01T11:27:56;19.78;;;10.80;;
54143;SDS011;40050;47.324;18.792;2023-03-01T11:32:11;18.39;;;10.30;;
54143;SDS011;40050;47.324;18.792;2023-03-01T11:34:23;17.80;;;10.60;;
54143;SDS011;40050;47.324;18.792;2023-03-01T11:36:35;16.90;;;9.70;;
54143;SDS011;40050;47.324;18.792;2023-03-01T11:38:43;15.31;;;9.10;;
54143;SDS011;40050;47.324;18.792;2023-03-01T11:41:03;17.60;;;9.70;;
54143;SDS011;40050;47.324;18.792;2023-03-01T11:43:11;16.90;;;10.30;;
54143;SDS011;40050;47.324;18.792;2023-03-01T11:44:58;16.70;;;10.30;;
54143;SDS011;40050;47.324;18.792;2023-03-01T11:53:47;16.71;;;10.20;;
54143;SDS011;40050;47.324;18.792;2023-03-01T11:58:23;22.78;;;10.10;;
54143;SDS011;40050;47.324;18.792;2023-03-01T12:16:28;15.52;;;8.80;;
54143;SDS011;40050;47.324;18.792;2023-03-01T12:20:56;14.72;;;8.70;;
54143;SDS011;40050;47.324;18.792;2023-03-01T12:25:25;13.63;;;7.90;;
54143;SDS011;40050;47.324;18.792;2023-03-01T12:27:48;16.31;;;10.00;;
54143;SDS011;40050;47.324;18.792;2023-03-01T12:35:02;15.52;;;9.50;;
54143;SDS011;40050;47.324;18.792;2023-03-01T12:46:05;13.64;;;7.90;;